Time;durP1;ratioP1;P1;durP2;ratioP2;P2;SDS_P1;SDS_P2;PMS_P1;PMS_P2;Temp;Humidity;BMP_temperature;BMP_pressure;BME280_temperature;BME280_humidity;BME280_pressure;Samples;Min_cycle;Max_cycle;Signal;HPM_P1;HPM_P2
2022/05/02 00:00:45;;;;;;;15.27;13.63;;;11.20;90.80;;;;;;5076547;28;20567;-39
2022/05/02 00:03:12;;;;;;;14.40;13.20;;;11.20;91.00;;;;;;5077511;28;20484;-39
2022/05/02 00:05:40;;;;;;;13.43;12.00;;;11.20;90.90;;;;;;5060384;28;20511;-39
2022/05/02 00:08:06;;;;;;;13.87;12.67;;;11.10;90.90;;;;;;5076804;28;20424;-42
2022/05/02 00:10:33;;;;;;;14.20;12.80;;;11.10;90.80;;;;;;5060541;28;20671;-47
2022/05/02 00:13:00;;;;;;;15.10;13.60;;;11.10;90.80;;;;;;5076815;28;20892;-48
2022/05/02 00:15:26;;;;;;;14.20;12.97;;;11.10;90.90;;;;;;5077230;28;20416;-47
2022/05/02 00:17:58;;;;;;;15.67;14.27;;;11.10;91.00;;;;;;5077500;28;20440;-48
2022/05/02 00:20:30;;;;;;;15.03;13.63;;;11.00;91.10;;;;;;5077710;28;20188;-48
2022/05/02 00:22:57;;;;;;;15.73;14.17;;;11.00;91.30;;;;;;5076796;28;20541;-47
2022/05/02 00:25:23;;;;;;;15.57;14.17;;;10.90;91.40;;;;;;5059366;28;20526;-47
2022/05/02 00:27:55;;;;;;;14.03;12.80;;;10.90;91.40;;;;;;5114728;27;20606;-41
2022/05/02 00:30:21;;;;;;;14.00;12.60;;;10.80;91.40;;;;;;5115618;28;20811;-40
2022/05/02 00:32:47;;;;;;;13.50;12.17;;;10.80;91.50;;;;;;5114684;28;20517;-40
2022/05/02 00:35:13;;;;;;;15.57;13.70;;;10.80;91.50;;;;;;5114983;28;20221;-40
2022/05/02 00:37:40;;;;;;;14.80;13.40;;;10.80;91.40;;;;;;5115402;28;20414;-41
2022/05/02 00:40:11;;;;;;;16.27;14.67;;;10.70;91.40;;;;;;5115442;28;20400;-41
2022/05/02 00:42:37;;;;;;;14.67;13.27;;;10.70;91.50;;;;;;5115310;28;20416;-42
2022/05/02 00:45:06;;;;;;;14.53;13.13;;;10.60;91.40;;;;;;5115743;28;20415;-40
2022/05/02 00:47:31;;;;;;;15.60;14.00;;;10.60;91.40;;;;;;5114553;28;20485;-42
2022/05/02 00:49:57;;;;;;;15.27;13.77;;;10.60;91.40;;;;;;5115383;28;20835;-40
2022/05/02 00:52:22;;;;;;;14.97;13.57;;;10.60;91.50;;;;;;5114997;28;20173;-41
2022/05/02 00:54:49;;;;;;;14.97;13.67;;;10.60;91.60;;;;;;5115061;28;20173;-39
2022/05/02 00:57:16;;;;;;;12.70;11.60;;;10.50;91.50;;;;;;5114370;28;20260;-40
2022/05/02 00:59:42;;;;;;;14.10;12.73;;;10.60;91.50;;;;;;5115008;28;20425;-40
2022/05/02 01:02:11;;;;;;;12.90;11.80;;;10.50;91.40;;;;;;5114125;28;20512;-40
2022/05/02 01:04:37;;;;;;;13.33;12.13;;;10.50;91.20;;;;;;5115127;28;20513;-43
2022/05/02 01:07:10;;;;;;;13.37;12.17;;;10.50;91.20;;;;;;5115186;28;20814;-39
2022/05/02 01:09:42;;;;;;;13.73;12.43;;;10.40;91.20;;;;;;5114496;28;20414;-41
2022/05/02 01:12:14;;;;;;;13.67;12.40;;;10.40;91.20;;;;;;5114433;28;20433;-44
2022/05/02 01:14:40;;;;;;;14.40;13.07;;;10.40;91.30;;;;;;5115142;28;20420;-42
2022/05/02 01:17:06;;;;;;;15.20;13.73;;;10.30;91.20;;;;;;5114758;28;20425;-41
2022/05/02 01:19:32;;;;;;;13.83;12.60;;;10.30;91.30;;;;;;5114069;28;20419;-40
2022/05/02 01:21:58;;;;;;;13.27;12.07;;;10.20;91.30;;;;;;5114880;28;20483;-41
2022/05/02 01:24:44;;;;;;;14.70;13.30;;;10.20;91.30;;;;;;5114789;28;20509;-40
2022/05/02 01:27:11;;;;;;;14.00;12.70;;;10.20;91.20;;;;;;5113392;28;20482;-40
2022/05/02 01:29:39;;;;;;;13.90;12.60;;;10.30;91.10;;;;;;5114319;28;20421;-40
2022/05/02 01:32:06;;;;;;;14.20;12.80;;;10.30;91.10;;;;;;5114245;28;20418;-38
2022/05/02 01:34:42;;;;;;;14.80;13.27;;;10.20;90.90;;;;;;5114692;28;20414;-43
2022/05/02 01:37:09;;;;;;;13.93;12.70;;;10.20;91.00;;;;;;5113414;28;20433;-40
2022/05/02 01:39:35;;;;;;;14.40;13.17;;;10.20;91.10;;;;;;5100672;28;20446;-41
2022/05/02 01:42:02;;;;;;;14.37;13.07;;;10.20;91.10;;;;;;5099908;28;20474;-41
2022/05/02 01:44:28;;;;;;;15.17;13.73;;;10.20;91.10;;;;;;5101282;28;20817;-40
2022/05/02 01:46:53;;;;;;;13.40;12.20;;;10.10;91.00;;;;;;5100492;28;20557;-40
2022/05/02 01:49:19;;;;;;;15.70;14.10;;;10.00;91.00;;;;;;5099935;28;20838;-40
2022/05/02 01:51:45;;;;;;;14.03;12.57;;;10.00;91.10;;;;;;5081650;28;20189;-39
2022/05/02 01:54:11;;;;;;;14.10;12.70;;;10.00;91.10;;;;;;5080757;28;20412;-39
2022/05/02 01:56:37;;;;;;;14.17;12.87;;;9.90;91.60;;;;;;5080173;28;20191;-40
2022/05/02 01:59:03;;;;;;;13.73;12.53;;;9.90;91.80;;;;;;5080275;28;20428;-41
2022/05/02 02:01:29;;;;;;;15.80;14.30;;;9.80;91.80;;;;;;5079775;28;20497;-41
2022/05/02 02:03:55;;;;;;;13.93;12.53;;;9.80;91.80;;;;;;5080018;28;20455;-39
2022/05/02 02:06:21;;;;;;;14.80;13.40;;;9.80;91.80;;;;;;5080246;28;20205;-39
2022/05/02 02:08:47;;;;;;;14.67;13.27;;;9.70;92.00;;;;;;5079493;28;20501;-39
2022/05/02 02:11:14;;;;;;;14.93;13.57;;;9.70;92.30;;;;;;5078676;28;20423;-39
2022/05/02 02:13:40;;;;;;;15.03;13.43;;;9.70;92.20;;;;;;5079451;28;20432;-39
2022/05/02 02:16:09;;;;;;;15.00;13.50;;;9.60;92.30;;;;;;5078774;28;20442;-41
2022/05/02 02:18:36;;;;;;;15.20;13.70;;;9.60;92.40;;;;;;5079599;28;20430;-40
2022/05/02 02:21:02;;;;;;;14.67;13.37;;;9.60;92.50;;;;;;5078924;28;20502;-39
2022/05/02 02:23:28;;;;;;;14.17;12.80;;;9.50;92.40;;;;;;5079413;28;20523;-41
2022/05/02 02:25:54;;;;;;;13.97;12.67;;;9.50;92.30;;;;;;5078120;28;20502;-41
2022/05/02 02:28:19;;;;;;;15.00;13.60;;;9.50;92.20;;;;;;5079264;28;20208;-41
2022/05/02 02:30:46;;;;;;;12.90;11.60;;;9.50;92.20;;;;;;5079716;28;20180;-41
2022/05/02 02:33:12;;;;;;;15.77;14.27;;;9.50;92.00;;;;;;5079337;28;20185;-38
2022/05/02 02:35:38;;;;;;;18.03;14.00;;;9.60;91.90;;;;;;5078669;28;20408;-40
2022/05/02 02:38:03;;;;;;;14.70;13.27;;;9.50;92.00;;;;;;5079636;28;20474;-39
2022/05/02 02:40:31;;;;;;;14.17;12.87;;;9.50;92.10;;;;;;5078713;28;20404;-40
2022/05/02 02:42:56;;;;;;;14.43;13.17;;;9.50;92.20;;;;;;5078640;28;20446;-39
2022/05/02 02:45:22;;;;;;;14.57;13.27;;;9.50;92.30;;;;;;5078495;28;20849;-40
2022/05/02 02:47:48;;;;;;;13.90;12.63;;;9.40;92.60;;;;;;5077849;28;20575;-40
2022/05/02 02:50:14;;;;;;;15.40;13.90;;;9.40;92.70;;;;;;5077420;28;20170;-40
2022/05/02 02:52:39;;;;;;;17.80;14.50;;;9.30;92.70;;;;;;5078346;28;20416;-40
2022/05/02 02:55:05;;;;;;;15.20;13.87;;;9.30;92.70;;;;;;5079283;28;20273;-40
2022/05/02 02:57:31;;;;;;;16.60;15.00;;;9.40;92.70;;;;;;5079170;28;20188;-42
2022/05/02 02:59:57;;;;;;;16.50;14.97;;;9.40;92.90;;;;;;5079252;28;20406;-43
2022/05/02 03:02:22;;;;;;;16.20;14.70;;;9.40;92.80;;;;;;5078811;28;20621;-42
2022/05/02 03:07:33;;;;;;;15.83;14.40;;;9.30;92.80;;;;;;5077519;28;20210;-42
2022/05/02 03:09:58;;;;;;;15.83;14.23;;;9.30;93.10;;;;;;5079073;28;20404;-39
2022/05/02 03:12:24;;;;;;;15.40;13.90;;;9.30;92.70;;;;;;5078482;28;20833;-39
2022/05/02 03:14:50;;;;;;;15.23;13.93;;;9.30;92.70;;;;;;5077713;28;20705;-41
2022/05/02 03:17:16;;;;;;;15.60;14.20;;;9.30;92.60;;;;;;5078393;28;20440;-39
2022/05/02 03:19:41;;;;;;;14.53;13.10;;;9.30;92.60;;;;;;5077656;28;20189;-38
2022/05/02 03:22:07;;;;;;;16.40;14.90;;;9.20;92.70;;;;;;5078144;28;20174;-40
2022/05/02 03:24:33;;;;;;;15.17;13.67;;;9.20;92.60;;;;;;5077727;28;20181;-40
2022/05/02 03:26:59;;;;;;;14.37;12.97;;;9.10;92.50;;;;;;5077884;28;20320;-43
2022/05/02 03:29:24;;;;;;;15.80;14.30;;;9.10;92.40;;;;;;5077455;28;20523;-41
2022/05/02 03:31:50;;;;;;;15.70;14.20;;;9.10;92.50;;;;;;5078038;28;20173;-42
2022/05/02 03:34:16;;;;;;;15.60;14.07;;;9.10;92.40;;;;;;5078073;28;20601;-39
2022/05/02 03:36:41;;;;;;;14.67;13.37;;;9.10;92.50;;;;;;5078155;28;20455;-40
2022/05/02 03:39:07;;;;;;;14.30;13.00;;;9.00;92.40;;;;;;5077988;28;20212;-40
2022/05/02 03:41:33;;;;;;;16.70;15.13;;;9.00;92.40;;;;;;5078245;28;20173;-41
2022/05/02 03:43:59;;;;;;;15.83;14.43;;;9.00;92.50;;;;;;5076526;28;20259;-39
2022/05/02 03:46:25;;;;;;;15.07;13.73;;;8.90;92.50;;;;;;5077950;28;20197;-39
2022/05/02 03:48:50;;;;;;;14.33;13.03;;;8.90;92.60;;;;;;5077928;28;20203;-40
2022/05/02 03:51:16;;;;;;;16.13;14.63;;;8.80;92.50;;;;;;5077577;28;20512;-39
2022/05/02 03:53:42;;;;;;;16.37;14.87;;;8.90;92.50;;;;;;5077189;28;20179;-42
2022/05/02 03:56:08;;;;;;;15.23;13.77;;;8.90;92.40;;;;;;5077031;28;20173;-41
2022/05/02 03:58:33;;;;;;;15.70;14.07;;;8.90;92.50;;;;;;5076526;28;20243;-39
2022/05/02 04:00:59;;;;;;;14.33;13.03;;;8.80;92.50;;;;;;5076452;28;20178;-41
2022/05/02 04:03:25;;;;;;;15.20;13.80;;;8.80;92.60;;;;;;5077992;28;20224;-41
2022/05/02 04:05:51;;;;;;;15.50;14.07;;;8.80;92.50;;;;;;5078154;28;20427;-41
2022/05/02 04:08:16;;;;;;;14.57;13.27;;;8.70;92.40;;;;;;5077732;28;20538;-40
2022/05/02 04:10:42;;;;;;;14.20;12.80;;;8.80;92.50;;;;;;5075865;28;20235;-40
2022/05/02 04:13:08;;;;;;;15.00;13.60;;;8.70;92.30;;;;;;5073734;28;20192;-41
2022/05/02 04:15:34;;;;;;;15.20;13.83;;;8.70;92.40;;;;;;5075608;28;20165;-41
2022/05/02 04:18:00;;;;;;;13.50;12.20;;;8.80;92.40;;;;;;5075403;28;20424;-42
2022/05/02 04:20:26;;;;;;;14.87;13.47;;;8.80;92.40;;;;;;5075917;28;20446;-39
2022/05/02 04:22:51;;;;;;;15.77;14.17;;;8.80;92.40;;;;;;5086572;28;20185;-43
2022/05/02 04:25:17;;;;;;;15.27;13.67;;;8.90;92.50;;;;;;5093603;28;20478;-41
2022/05/02 04:27:43;;;;;;;14.70;13.37;;;8.90;92.60;;;;;;5093490;28;20229;-42
2022/05/02 04:30:10;;;;;;;15.33;13.83;;;8.90;92.70;;;;;;5092589;28;20726;-39
2022/05/02 04:32:37;;;;;;;14.23;12.87;;;8.90;92.70;;;;;;5093482;28;20853;-41
2022/05/02 04:35:03;;;;;;;15.70;14.20;;;8.90;92.80;;;;;;5093668;28;20706;-41
2022/05/02 04:37:29;;;;;;;15.70;14.10;;;9.00;92.90;;;;;;5096214;28;20410;-43
2022/05/02 04:39:55;;;;;;;15.80;14.40;;;9.00;92.90;;;;;;5097661;28;20411;-41
2022/05/02 04:42:21;;;;;;;15.53;14.03;;;9.00;92.90;;;;;;5097187;28;20575;-41
2022/05/02 04:44:46;;;;;;;15.83;14.23;;;9.10;93.00;;;;;;5096681;28;20435;-42
2022/05/02 04:47:12;;;;;;;15.30;13.90;;;9.20;93.00;;;;;;5094740;28;20228;-39
2022/05/02 04:49:38;;;;;;;15.70;14.10;;;9.30;93.00;;;;;;5094630;28;20492;-41
2022/05/02 04:52:04;;;;;;;15.83;14.27;;;9.30;93.10;;;;;;5095558;28;20169;-42
2022/05/02 04:54:29;;;;;;;15.10;13.60;;;9.40;93.20;;;;;;5095097;28;20242;-39
2022/05/02 04:56:55;;;;;;;18.30;15.17;;;9.40;93.20;;;;;;5093645;28;20419;-42
2022/05/02 04:59:21;;;;;;;16.13;14.63;;;9.50;93.30;;;;;;5093206;28;20785;-40
2022/05/02 05:01:46;;;;;;;16.33;14.77;;;9.60;93.30;;;;;;5093635;28;20575;-40
2022/05/02 05:04:12;;;;;;;15.40;13.90;;;9.70;93.30;;;;;;5093866;28;20189;-40
2022/05/02 05:06:38;;;;;;;16.00;14.40;;;9.80;93.30;;;;;;5092136;28;20201;-40
2022/05/02 05:09:04;;;;;;;16.07;14.57;;;9.90;93.30;;;;;;5093044;28;20173;-42
2022/05/02 05:11:50;;;;;;;15.73;14.27;;;10.00;92.70;;;;;;5092852;28;20173;-41
2022/05/02 05:17:48;;;;;;;17.53;15.63;;;10.40;92.70;;;;;;5097521;28;20457;-40
2022/05/02 05:20:49;;;;;;;15.10;13.70;;;10.60;92.60;;;;;;5098891;28;20411;-40
2022/05/02 05:23:39;;;;;;;16.70;15.10;;;10.70;92.50;;;;;;5062781;28;20444;-40
2022/05/02 05:26:32;;;;;;;17.10;15.50;;;10.90;92.30;;;;;;5098529;28;20501;-42
2022/05/02 05:29:18;;;;;;;18.00;16.30;;;11.10;92.10;;;;;;5098980;28;20578;-40
2022/05/02 05:31:55;;;;;;;18.83;17.07;;;11.20;91.90;;;;;;5097253;28;20812;-38
2022/05/02 05:34:37;;;;;;;16.57;15.07;;;11.30;91.70;;;;;;5098216;28;20450;-41
2022/05/02 05:37:23;;;;;;;16.17;14.67;;;11.50;91.50;;;;;;5096530;28;20442;-40
2022/05/02 05:40:21;;;;;;;17.10;15.40;;;11.60;91.40;;;;;;5097926;28;20423;-39
2022/05/02 05:43:01;;;;;;;17.30;15.60;;;11.70;91.30;;;;;;5097114;28;20433;-40
2022/05/02 05:45:37;;;;;;;15.27;13.77;;;11.90;91.10;;;;;;5099009;28;20418;-40
2022/05/02 05:48:15;;;;;;;15.90;14.30;;;12.00;91.00;;;;;;5097720;28;20433;-39
2022/05/02 05:51:06;;;;;;;17.40;15.77;;;12.10;90.70;;;;;;5097774;28;20450;-43
2022/05/02 05:54:16;;;;;;;15.97;14.57;;;12.20;90.50;;;;;;5098890;28;20473;-41
2022/05/02 05:57:07;;;;;;;15.80;14.30;;;12.40;90.30;;;;;;5098676;28;20419;-40
2022/05/02 06:00:07;;;;;;;15.00;13.60;;;12.50;90.00;;;;;;5098422;28;20529;-41
2022/05/02 06:02:47;;;;;;;15.33;13.93;;;12.70;89.40;;;;;;5098366;28;20414;-38
2022/05/02 06:05:15;;;;;;;15.33;13.93;;;12.80;88.90;;;;;;5098000;28;20429;-48
2022/05/02 06:07:43;;;;;;;17.63;15.93;;;13.00;88.50;;;;;;5097629;28;20472;-48
2022/05/02 06:10:10;;;;;;;17.53;15.73;;;13.10;88.00;;;;;;5096989;28;20768;-48
2022/05/02 06:12:38;;;;;;;17.37;15.67;;;13.20;87.80;;;;;;5097632;28;20407;-45
2022/05/02 06:20:39;;;;;;;16.43;14.83;;;13.60;87.00;;;;;;5097907;28;20762;-49
2022/05/02 06:23:07;;;;;;;16.67;15.17;;;13.80;86.60;;;;;;5098478;28;20433;-48
2022/05/02 06:25:36;;;;;;;17.40;15.17;;;14.00;86.40;;;;;;5097741;28;20461;-46
2022/05/02 06:28:03;;;;;;;15.30;13.90;;;14.20;86.20;;;;;;5096402;28;20485;-46
2022/05/02 06:30:30;;;;;;;15.73;14.43;;;14.40;85.70;;;;;;5095922;28;20418;-47
2022/05/02 06:32:58;;;;;;;17.37;15.53;;;14.60;85.20;;;;;;5095282;28;20681;-47
2022/05/02 06:35:30;;;;;;;16.53;15.03;;;14.80;84.80;;;;;;5096559;28;20876;-46
2022/05/02 06:38:01;;;;;;;15.80;14.30;;;15.00;84.50;;;;;;5096340;28;20438;-47
2022/05/02 06:40:41;;;;;;;16.90;15.20;;;15.20;84.30;;;;;;5095935;28;20411;-46
2022/05/02 06:43:25;;;;;;;15.37;13.87;;;15.40;83.70;;;;;;5097236;28;20422;-46
2022/05/02 06:46:20;;;;;;;17.23;15.53;;;15.70;83.40;;;;;;5098354;28;20795;-39
2022/05/02 06:48:55;;;;;;;15.70;14.20;;;15.90;82.50;;;;;;5098568;28;20425;-40
2022/05/02 06:51:31;;;;;;;16.53;14.97;;;16.20;82.00;;;;;;5097324;28;20456;-41
2022/05/02 06:54:10;;;;;;;15.10;13.80;;;16.50;81.60;;;;;;5096848;28;20442;-42
2022/05/02 06:56:45;;;;;;;14.80;13.50;;;16.70;81.10;;;;;;5095911;28;20532;-40
2022/05/02 06:59:40;;;;;;;15.33;13.47;;;17.00;80.60;;;;;;5096780;28;20555;-39
2022/05/02 07:02:12;;;;;;;15.33;13.83;;;17.20;79.60;;;;;;5097387;28;20407;-42
2022/05/02 07:04:52;;;;;;;14.33;13.03;;;17.50;78.80;;;;;;5094881;28;20442;-42
2022/05/02 07:07:46;;;;;;;15.33;13.83;;;17.70;77.80;;;;;;5096585;28;20457;-45
2022/05/02 07:10:25;;;;;;;15.03;13.63;;;18.00;77.10;;;;;;5096600;28;20436;-44
2022/05/02 07:13:10;;;;;;;15.27;13.60;;;18.20;76.00;;;;;;5097497;28;20424;-44
2022/05/02 07:16:24;;;;;;;15.07;13.80;;;18.50;75.30;;;;;;5096635;28;20429;-43
2022/05/02 07:19:08;;;;;;;15.50;14.10;;;18.80;74.30;;;;;;5032744;28;20803;-42
2022/05/02 07:21:46;;;;;;;15.93;14.57;;;19.00;73.20;;;;;;5095067;28;20405;-45
2022/05/02 07:24:45;;;;;;;16.57;15.13;;;19.20;72.10;;;;;;5095797;28;20430;-44
2022/05/02 07:27:18;;;;;;;14.43;13.23;;;19.40;71.00;;;;;;5096259;28;20624;-44
2022/05/02 07:29:44;;;;;;;13.90;12.77;;;19.70;70.10;;;;;;5095207;28;20432;-46
2022/05/02 07:32:11;;;;;;;14.27;13.07;;;19.90;69.30;;;;;;5095742;28;20867;-46
2022/05/02 07:34:38;;;;;;;13.33;12.17;;;20.10;68.30;;;;;;5094426;28;20450;-44
2022/05/02 07:37:05;;;;;;;14.97;13.70;;;20.30;67.30;;;;;;5094623;28;20465;-46
2022/05/02 07:39:32;;;;;;;13.00;11.90;;;20.50;65.90;;;;;;5096503;28;20440;-42
2022/05/02 07:42:00;;;;;;;15.63;14.03;;;20.70;64.90;;;;;;5095223;28;20410;-45
2022/05/02 07:44:29;;;;;;;13.87;12.47;;;21.00;63.80;;;;;;5095389;28;20516;-43
2022/05/02 07:46:57;;;;;;;13.37;12.17;;;21.20;62.60;;;;;;5093539;28;20614;-44
2022/05/02 07:49:24;;;;;;;13.33;12.23;;;21.40;60.60;;;;;;5093086;28;20759;-43
2022/05/02 07:51:53;;;;;;;14.13;12.97;;;21.40;59.60;;;;;;5091760;28;20463;-44
2022/05/02 07:54:40;;;;;;;13.40;12.30;;;21.50;59.10;;;;;;5093170;28;20454;-45
2022/05/02 07:57:07;;;;;;;14.17;12.97;;;21.70;59.10;;;;;;5094541;28;20787;-45
2022/05/02 07:59:37;;;;;;;13.40;12.20;;;22.10;58.80;;;;;;5076089;28;20532;-44
2022/05/02 08:02:04;;;;;;;10.50;9.70;;;22.50;58.00;;;;;;5071598;28;20402;-45
2022/05/02 08:04:30;;;;;;;12.33;11.33;;;22.90;57.40;;;;;;5072607;28;20428;-42
2022/05/02 08:07:09;;;;;;;11.80;10.70;;;23.40;56.50;;;;;;5072116;28;20898;-44
2022/05/02 08:09:54;;;;;;;10.50;9.70;;;23.80;55.50;;;;;;5073083;28;20180;-43
2022/05/02 08:12:22;;;;;;;10.00;9.10;;;24.30;54.10;;;;;;5074742;28;20445;-45
2022/05/02 08:15:08;;;;;;;10.80;9.90;;;24.60;53.10;;;;;;5071054;28;21010;-46
2022/05/02 08:18:06;;;;;;;11.47;10.47;;;25.00;52.10;;;;;;5073988;28;20408;-45
2022/05/02 08:20:36;;;;;;;9.30;8.57;;;25.40;50.80;;;;;;5073813;28;20464;-44
2022/05/02 08:29:27;;;;;;;9.70;8.90;;;25.80;47.80;;;;;;5071397;28;20485;-44
2022/05/02 08:32:28;;;;;;;7.70;7.00;;;25.80;47.30;;;;;;5000582;28;20949;-46
2022/05/02 08:35:22;;;;;;;7.10;6.60;;;26.20;46.70;;;;;;5072646;28;20445;-44
2022/05/02 08:38:08;;;;;;;8.10;7.47;;;26.50;46.00;;;;;;5072090;28;21002;-45
2022/05/02 08:40:52;;;;;;;7.93;7.30;;;26.70;45.50;;;;;;5061619;28;20439;-47
2022/05/02 08:43:45;;;;;;;6.33;5.83;;;27.10;44.60;;;;;;5075270;28;20434;-48
2022/05/02 08:46:49;;;;;;;6.53;5.93;;;27.50;43.90;;;;;;5061073;28;20463;-47
2022/05/02 08:49:38;;;;;;;7.50;7.00;;;27.90;43.00;;;;;;5076723;28;20785;-44
2022/05/02 08:52:23;;;;;;;10.13;8.57;;;28.00;41.10;;;;;;5078990;28;20486;-46
2022/05/02 08:55:40;;;;;;;7.63;7.03;;;28.20;40.30;;;;;;5096274;28;20422;-45
2022/05/02 08:58:30;;;;;;;7.20;6.27;;;28.30;40.00;;;;;;5034910;28;20444;-45
2022/05/02 09:01:31;;;;;;;8.20;7.60;;;28.60;40.00;;;;;;5074711;28;20422;-46
2022/05/02 09:04:27;;;;;;;7.37;6.77;;;28.70;38.50;;;;;;5068781;28;20770;-45
2022/05/02 09:07:34;;;;;;;8.43;7.83;;;28.60;38.20;;;;;;5078503;28;20445;-46
2022/05/02 09:10:10;;;;;;;7.60;6.93;;;28.50;37.90;;;;;;5076155;28;20382;-45
2022/05/02 09:12:41;;;;;;;9.07;7.60;;;28.40;38.50;;;;;;5081882;28;20483;-47
2022/05/02 09:15:07;;;;;;;7.77;7.17;;;28.40;37.60;;;;;;5099740;28;20403;-45
2022/05/02 09:17:41;;;;;;;6.67;6.17;;;28.60;37.20;;;;;;5099067;28;20764;-45
2022/05/02 09:20:33;;;;;;;8.60;7.80;;;28.80;37.70;;;;;;5098691;28;20175;-44
2022/05/02 09:23:30;;;;;;;7.77;7.17;;;29.00;36.30;;;;;;5095857;28;20433;-45
2022/05/02 09:26:21;;;;;;;7.07;5.90;;;28.70;36.20;;;;;;5098009;28;20477;-47
2022/05/02 09:29:24;;;;;;;6.90;6.40;;;28.70;37.00;;;;;;5097645;28;20440;-44
2022/05/02 09:32:06;;;;;;;6.60;6.10;;;28.80;36.50;;;;;;5096227;28;20405;-47
2022/05/02 09:34:31;;;;;;;5.63;5.23;;;29.10;36.60;;;;;;5096154;28;20422;-43
2022/05/02 09:37:12;;;;;;;6.53;6.03;;;29.50;36.70;;;;;;5095873;28;20718;-44
2022/05/02 09:39:48;;;;;;;7.53;6.93;;;30.00;36.10;;;;;;5096977;28;20207;-46
2022/05/02 09:42:35;;;;;;;8.63;7.83;;;30.10;34.50;;;;;;5097208;28;20417;-46
2022/05/02 09:51:20;;;;;;;6.30;5.90;;;30.20;34.10;;;;;;5077761;28;20471;-44
2022/05/02 09:53:52;;;;;;;7.07;6.57;;;30.10;34.80;;;;;;5078978;28;20828;-45
2022/05/02 09:56:38;;;;;;;6.30;5.80;;;30.20;33.70;;;;;;5078655;28;20170;-45
2022/05/02 09:59:26;;;;;;;6.40;5.93;;;30.40;33.60;;;;;;5077567;28;20559;-47
2022/05/02 10:02:10;;;;;;;6.80;6.30;;;30.70;33.90;;;;;;5077443;28;20427;-45
2022/05/02 10:04:36;;;;;;;7.40;6.80;;;31.00;33.30;;;;;;5076815;28;20435;-48
2022/05/02 10:07:09;;;;;;;5.77;5.23;;;31.30;32.40;;;;;;5075923;28;20468;-48
2022/05/02 10:09:54;;;;;;;5.90;5.50;;;30.60;32.30;;;;;;5090055;28;20183;-46
2022/05/02 10:12:31;;;;;;;5.67;5.17;;;29.90;33.30;;;;;;5098066;28;20485;-46
2022/05/02 10:15:17;;;;;;;5.70;5.30;;;29.40;34.30;;;;;;5095626;28;20425;-46
2022/05/02 10:18:20;;;;;;;5.37;4.87;;;28.90;35.00;;;;;;5097298;28;20388;-43
2022/05/02 10:20:59;;;;;;;6.63;6.13;;;29.00;35.80;;;;;;5096005;28;20414;-45
2022/05/02 10:23:34;;;;;;;6.00;5.50;;;28.90;35.10;;;;;;5094503;28;20693;-46
2022/05/02 10:26:16;;;;;;;7.57;6.97;;;28.90;35.50;;;;;;5094589;28;20720;-46
2022/05/02 10:29:12;;;;;;;4.90;4.50;;;29.30;34.00;;;;;;5096587;28;20434;-48
2022/05/02 10:31:39;;;;;;;6.83;6.13;;;29.80;34.60;;;;;;5093623;28;20419;-46
2022/05/02 10:34:05;;;;;;;7.27;6.00;;;29.60;34.20;;;;;;5095119;28;20775;-45
2022/05/02 10:36:39;;;;;;;6.37;5.90;;;29.30;34.50;;;;;;5094847;28;20516;-48
2022/05/02 10:39:18;;;;;;;6.90;5.87;;;28.90;34.80;;;;;;5097293;28;20436;-47
2022/05/02 10:41:52;;;;;;;5.87;5.47;;;28.50;34.90;;;;;;5094090;28;20842;-45
2022/05/02 10:44:18;;;;;;;6.90;6.40;;;28.10;34.70;;;;;;5096022;28;20434;-47
2022/05/02 10:46:45;;;;;;;6.20;5.70;;;28.40;34.30;;;;;;5095610;28;20470;-47
2022/05/02 10:49:42;;;;;;;5.93;5.53;;;29.20;34.20;;;;;;5095490;28;20188;-42
2022/05/02 10:52:13;;;;;;;5.50;5.20;;;30.20;33.80;;;;;;5097165;28;20704;-43
2022/05/02 10:54:59;;;;;;;5.87;5.47;;;30.50;33.20;;;;;;5096884;28;20429;-44
2022/05/02 10:57:38;;;;;;;5.90;5.50;;;30.60;33.00;;;;;;5095127;28;20410;-45
2022/05/02 11:00:07;;;;;;;6.60;6.10;;;31.10;33.20;;;;;;5097214;28;20739;-45
2022/05/02 11:02:38;;;;;;;5.30;4.90;;;31.10;32.70;;;;;;5096173;28;20674;-46
2022/05/02 11:05:07;;;;;;;6.03;5.63;;;30.80;32.50;;;;;;5096380;28;20404;-47
2022/05/02 11:08:06;;;;;;;6.10;5.60;;;30.90;32.90;;;;;;5096274;28;20798;-47
2022/05/02 11:11:06;;;;;;;6.53;6.00;;;31.40;32.90;;;;;;5094724;28;20787;-48
2022/05/02 11:13:43;;;;;;;6.83;5.97;;;32.60;32.80;;;;;;5082273;28;20413;-48
2022/05/02 11:16:25;;;;;;;7.03;6.53;;;33.40;32.00;;;;;;5096064;28;20408;-45
2022/05/02 11:22:05;;;;;;;6.40;6.00;;;33.50;30.10;;;;;;5093452;28;20387;-46
2022/05/02 11:24:34;;;;;;;5.93;5.53;;;33.70;29.30;;;;;;5095476;28;20422;-50
2022/05/02 11:27:30;;;;;;;5.53;5.23;;;33.90;29.40;;;;;;5095202;28;20928;-43
2022/05/02 11:30:06;;;;;;;5.17;4.67;;;33.80;29.60;;;;;;5093382;28;20675;-48
2022/05/02 11:33:02;;;;;;;5.90;5.50;;;33.40;29.30;;;;;;5096886;28;20392;-46
2022/05/02 11:35:29;;;;;;;6.40;5.80;;;33.00;29.40;;;;;;5096684;28;20405;-46
2022/05/02 11:38:09;;;;;;;6.00;5.57;;;32.60;29.70;;;;;;5095424;28;20519;-45
2022/05/02 11:40:46;;;;;;;5.83;5.30;;;32.90;30.00;;;;;;5095804;28;20799;-45
2022/05/02 11:43:15;;;;;;;6.23;5.73;;;33.60;29.70;;;;;;5095186;28;20423;-49
2022/05/02 11:45:43;;;;;;;6.03;5.57;;;34.40;29.30;;;;;;5094940;28;20488;-46
2022/05/02 11:48:20;;;;;;;5.40;5.00;;;34.90;29.00;;;;;;5095834;28;20480;-44
2022/05/02 11:50:47;;;;;;;5.37;5.07;;;35.40;28.70;;;;;;5095337;28;20764;-45
2022/05/02 11:53:15;;;;;;;5.20;4.80;;;35.90;28.40;;;;;;5094384;28;20795;-48
2022/05/02 11:55:42;;;;;;;5.30;4.90;;;36.10;27.80;;;;;;5093610;28;20419;-48
2022/05/02 11:58:18;;;;;;;5.80;5.07;;;36.00;27.50;;;;;;5094665;28;20405;-46
2022/05/02 12:00:58;;;;;;;4.60;4.30;;;36.10;27.60;;;;;;5094131;28;20488;-46
2022/05/02 12:03:25;;;;;;;4.80;4.50;;;36.20;27.90;;;;;;5095144;28;20415;-45
2022/05/02 12:05:56;;;;;;;5.43;5.03;;;36.70;28.10;;;;;;5095559;28;20386;-47
2022/05/02 12:08:33;;;;;;;5.23;4.73;;;37.30;27.90;;;;;;5094537;28;20775;-44
2022/05/02 12:11:04;;;;;;;5.57;5.27;;;38.00;27.80;;;;;;5095083;28;20414;-48
2022/05/02 12:13:35;;;;;;;4.93;4.63;;;38.40;26.20;;;;;;5094420;28;20399;-47
2022/05/02 12:16:13;;;;;;;5.57;5.17;;;38.70;26.10;;;;;;5094372;28;20430;-46
2022/05/02 12:18:41;;;;;;;5.80;5.30;;;38.90;26.20;;;;;;5093454;28;20514;-46
2022/05/02 12:21:08;;;;;;;5.20;4.90;;;38.70;26.10;;;;;;5096284;28;20587;-45
2022/05/02 12:23:36;;;;;;;5.20;4.90;;;38.10;26.40;;;;;;5094793;28;20422;-46
2022/05/02 12:26:03;;;;;;;4.73;4.40;;;37.20;26.70;;;;;;5095030;28;20544;-44
2022/05/02 12:28:42;;;;;;;5.27;4.83;;;36.60;26.80;;;;;;5095081;28;20505;-45
2022/05/02 12:31:20;;;;;;;5.60;5.20;;;35.90;27.00;;;;;;5096128;28;20425;-48
2022/05/02 12:33:50;;;;;;;4.43;4.13;;;35.70;27.30;;;;;;5094321;28;20426;-46
2022/05/02 12:36:20;;;;;;;4.10;3.80;;;36.10;27.50;;;;;;5095208;28;20423;-47
2022/05/02 12:38:54;;;;;;;5.97;5.57;;;36.90;27.50;;;;;;5095615;28;20438;-45
2022/05/02 12:41:27;;;;;;;4.90;4.60;;;37.00;26.10;;;;;;5095413;28;20781;-47
2022/05/02 12:43:55;;;;;;;5.20;4.70;;;36.80;26.30;;;;;;5096194;28;20508;-46
2022/05/02 12:46:26;;;;;;;5.53;5.23;;;36.40;26.50;;;;;;5095112;28;20444;-49
2022/05/02 12:48:55;;;;;;;5.40;5.00;;;36.10;26.40;;;;;;5095026;28;20442;-44
2022/05/02 12:51:27;;;;;;;5.13;4.80;;;35.60;26.30;;;;;;5094721;28;20680;-44
2022/05/02 12:54:13;;;;;;;5.80;5.30;;;35.10;26.50;;;;;;5093979;28;20433;-45
2022/05/02 13:02:35;;;;;;;5.67;5.27;;;33.30;28.00;;;;;;5092875;28;20415;-46
2022/05/02 13:05:06;;;;;;;5.67;5.27;;;32.90;28.40;;;;;;5094748;28;20757;-45
2022/05/02 13:07:41;;;;;;;5.40;5.00;;;32.60;28.60;;;;;;5095404;28;20859;-45
2022/05/02 13:10:24;;;;;;;5.33;4.93;;;32.40;28.80;;;;;;5094140;28;21032;-45
2022/05/02 13:13:17;;;;;;;4.80;4.50;;;32.20;29.00;;;;;;5095575;28;20558;-47
2022/05/02 13:15:47;;;;;;;5.00;4.60;;;32.00;29.20;;;;;;5091150;28;20426;-45
2022/05/02 13:18:15;;;;;;;5.00;4.70;;;31.90;29.10;;;;;;5094823;28;20469;-45
2022/05/02 13:20:48;;;;;;;5.03;4.63;;;31.90;28.90;;;;;;5095709;28;20383;-49
2022/05/02 13:23:14;;;;;;;5.10;4.80;;;31.80;28.80;;;;;;5094537;28;20426;-46
2022/05/02 13:26:01;;;;;;;5.10;4.70;;;31.60;28.60;;;;;;5094249;28;20415;-46
2022/05/02 13:29:03;;;;;;;5.00;4.70;;;31.80;28.90;;;;;;5092684;28;20467;-44
2022/05/02 13:31:52;;;;;;;4.93;4.27;;;31.80;29.10;;;;;;5094460;28;20794;-48
2022/05/02 13:34:39;;;;;;;4.80;4.50;;;31.80;29.10;;;;;;5095370;28;20433;-46
2022/05/02 13:37:26;;;;;;;4.20;3.90;;;31.60;28.90;;;;;;5097058;28;20429;-44
2022/05/02 13:40:16;;;;;;;4.23;3.93;;;31.40;29.00;;;;;;5097046;28;20899;-43
2022/05/02 13:42:55;;;;;;;4.20;3.90;;;31.10;29.20;;;;;;5083015;28;20480;-50
2022/05/02 13:45:59;;;;;;;4.60;4.20;;;31.00;29.00;;;;;;5089880;28;20435;-45